createdAt,value
2019-05-10T00:00:47.050Z,20.38
2019-05-10T00:01:47.045Z,20.36
2019-05-10T00:02:47.036Z,20.38
2019-05-10T00:03:47.031Z,20.35
2019-05-10T00:04:47.025Z,20.29
2019-05-10T00:05:47.020Z,20.35
2019-05-10T00:06:47.017Z,20.36
2019-05-10T00:07:47.010Z,20.32
2019-05-10T00:08:47.189Z,20.32
2019-05-10T00:09:46.999Z,20.42
2019-05-10T00:12:14.710Z,20.41
2019-05-10T00:13:14.704Z,20.41
2019-05-10T00:14:14.700Z,20.42
2019-05-10T00:15:14.693Z,20.35
2019-05-10T00:16:14.684Z,20.38
2019-05-10T00:17:14.679Z,20.29
2019-05-10T00:18:14.670Z,20.33
2019-05-10T00:19:14.666Z,20.33
2019-05-10T00:20:14.658Z,20.32
2019-05-10T00:21:14.650Z,20.38
2019-05-10T00:22:14.648Z,20.39
2019-05-10T00:23:14.638Z,20.35
2019-05-10T00:24:42.381Z,20.38
2019-05-10T00:25:42.376Z,20.29
2019-05-10T00:26:42.370Z,20.36
2019-05-10T00:28:10.092Z,20.33
2019-05-10T00:29:10.088Z,20.46
2019-05-10T00:30:10.087Z,20.39
2019-05-10T00:31:10.078Z,20.38
2019-05-10T00:32:10.073Z,20.42
2019-05-10T00:33:10.065Z,20.38
2019-05-10T00:35:10.052Z,20.36
2019-05-10T00:36:10.047Z,20.43
2019-05-10T00:37:10.039Z,20.39
2019-05-10T00:38:10.033Z,20.36
2019-05-10T00:39:10.027Z,20.35
2019-05-10T00:40:10.058Z,20.36
2019-05-10T00:41:10.016Z,20.32
2019-05-10T00:42:10.036Z,20.36
2019-05-10T00:43:10.000Z,20.35
2019-05-10T00:44:09.995Z,20.43
2019-05-10T00:45:09.988Z,20.31
2019-05-10T00:46:09.983Z,20.36
2019-05-10T00:47:09.980Z,20.31
2019-05-10T00:48:09.970Z,20.29
2019-05-10T00:49:09.964Z,20.41
2019-05-10T00:50:09.957Z,20.36
2019-05-10T00:51:09.952Z,20.32
2019-05-10T00:52:09.957Z,20.36
2019-05-10T00:53:09.939Z,20.39
2019-05-10T00:54:09.931Z,20.35
2019-05-10T00:55:18.382Z,20.29
2019-05-10T00:56:11.921Z,20.32
2019-05-10T00:57:09.916Z,20.35
2019-05-10T00:58:09.907Z,20.32
2019-05-10T00:59:09.905Z,20.35
2019-05-10T01:00:09.897Z,20.35
2019-05-10T01:01:09.888Z,20.41
2019-05-10T01:02:09.887Z,20.36
2019-05-10T01:03:09.877Z,20.41
2019-05-10T01:04:09.870Z,20.36
2019-05-10T01:05:37.595Z,20.39
2019-05-10T01:06:37.587Z,20.35
2019-05-10T01:07:37.591Z,20.38
2019-05-10T01:08:37.572Z,20.39
2019-05-10T01:09:37.566Z,20.46
2019-05-10T01:10:37.566Z,20.35
2019-05-10T01:11:37.555Z,20.31
2019-05-10T01:12:37.544Z,20.38
2019-05-10T01:13:37.544Z,20.24
2019-05-10T01:14:37.532Z,20.33
2019-05-10T01:15:37.528Z,20.39
2019-05-10T01:16:37.521Z,20.35
2019-05-10T01:17:37.513Z,20.32
2019-05-10T01:19:37.500Z,20.36
2019-05-10T01:21:37.485Z,20.32
2019-05-10T01:23:05.214Z,20.38
2019-05-10T01:24:05.202Z,20.36
2019-05-10T01:25:05.199Z,20.42
2019-05-10T01:26:05.192Z,20.28
2019-05-10T01:27:05.183Z,20.36
2019-05-10T01:28:05.179Z,20.29
2019-05-10T01:29:05.171Z,20.39
2019-05-10T01:30:05.173Z,20.32
2019-05-10T01:31:05.161Z,20.26
2019-05-10T01:32:05.162Z,20.29
2019-05-10T01:33:05.145Z,20.38
2019-05-10T01:34:05.140Z,20.32
2019-05-10T01:35:05.132Z,20.41
2019-05-10T01:36:05.126Z,20.35
2019-05-10T01:37:05.117Z,20.32
2019-05-10T01:38:05.109Z,20.33
2019-05-10T01:39:05.105Z,20.41
2019-05-10T01:40:05.096Z,20.35
2019-05-10T01:41:05.089Z,20.33
2019-05-10T01:42:05.083Z,20.36
2019-05-10T01:43:05.075Z,20.35
2019-05-10T01:44:05.069Z,20.29
2019-05-10T01:45:05.064Z,20.28
2019-05-10T01:46:32.782Z,20.33
2019-05-10T01:47:32.776Z,20.38
2019-05-10T01:48:32.771Z,20.29
2019-05-10T01:49:32.767Z,20.36
2019-05-10T01:50:32.760Z,20.23
2019-05-10T01:51:32.758Z,20.31
2019-05-10T01:52:32.747Z,20.32
2019-05-10T01:53:32.740Z,20.36
2019-05-10T01:54:32.737Z,20.42
2019-05-10T01:55:32.727Z,20.33
2019-05-10T01:56:32.720Z,20.38
2019-05-10T01:57:32.714Z,20.33
2019-05-10T01:58:32.707Z,20.39
2019-05-10T01:59:32.700Z,20.33
2019-05-10T02:01:05.484Z,20.35
2019-05-10T02:02:05.480Z,20.31
2019-05-10T02:03:05.474Z,20.38
2019-05-10T02:04:05.464Z,20.31
2019-05-10T02:05:05.455Z,20.33
2019-05-10T02:06:05.451Z,20.33
2019-05-10T02:07:05.493Z,20.38
2019-05-10T02:08:05.469Z,20.32
2019-05-10T02:09:05.497Z,20.32
2019-05-10T02:10:05.437Z,20.36
2019-05-10T02:11:05.430Z,20.31
2019-05-10T02:12:05.424Z,20.35
2019-05-10T02:13:05.414Z,20.35
2019-05-10T02:14:05.408Z,20.36
2019-05-10T02:15:05.405Z,20.31
2019-05-10T02:16:05.397Z,20.32
2019-05-10T02:17:33.118Z,20.26
2019-05-10T02:18:33.315Z,20.28
2019-05-10T02:19:33.109Z,20.32
2019-05-10T02:20:33.099Z,20.38
2019-05-10T02:21:33.094Z,20.35
2019-05-10T02:22:33.092Z,20.32
2019-05-10T02:23:33.080Z,20.33
2019-05-10T02:24:33.078Z,20.28
2019-05-10T02:25:33.068Z,20.31
2019-05-10T02:26:33.063Z,20.41
2019-05-10T02:27:33.057Z,20.42
2019-05-10T02:28:33.047Z,20.35
2019-05-10T02:29:33.048Z,20.28
2019-05-10T02:30:33.057Z,20.26
2019-05-10T02:31:33.036Z,20.28
2019-05-10T02:32:33.033Z,20.41
2019-05-10T02:33:33.021Z,20.32
2019-05-10T02:34:33.016Z,20.35
2019-05-10T02:35:33.011Z,20.26
2019-05-10T02:36:32.999Z,20.32
2019-05-10T02:37:32.993Z,20.31
2019-05-10T02:38:32.988Z,20.29
2019-05-10T02:39:32.977Z,20.29
2019-05-10T02:40:32.997Z,20.39
2019-05-10T02:41:32.970Z,20.33
2019-05-10T02:42:33.160Z,20.33
2019-05-10T02:43:32.955Z,20.32
2019-05-10T02:44:32.947Z,20.38
2019-05-10T02:45:32.938Z,20.31
2019-05-10T02:46:32.935Z,20.32
2019-05-10T02:47:32.925Z,20.32
2019-05-10T02:48:32.920Z,20.38
2019-05-10T02:49:32.914Z,20.28
2019-05-10T02:50:32.909Z,20.32
2019-05-10T02:51:32.898Z,20.32
2019-05-10T02:52:32.899Z,20.24
2019-05-10T02:54:00.614Z,20.26
2019-05-10T02:55:28.345Z,20.38
2019-05-10T02:56:30.868Z,20.31
2019-05-10T02:57:28.338Z,20.31
2019-05-10T02:58:28.332Z,20.32
2019-05-10T02:59:28.329Z,20.26
2019-05-10T03:00:28.326Z,20.29
2019-05-10T03:01:28.319Z,20.31
2019-05-10T03:02:28.314Z,20.31
2019-05-10T03:03:28.296Z,20.28
2019-05-10T03:04:28.293Z,20.38
2019-05-10T03:05:28.283Z,20.28
2019-05-10T03:06:28.344Z,20.23
2019-05-10T03:08:28.266Z,20.33
2019-05-10T03:09:28.280Z,20.33
2019-05-10T03:10:56.322Z,20.36
2019-05-10T03:11:55.994Z,20.29
2019-05-10T03:12:55.989Z,20.33
2019-05-10T03:13:55.985Z,20.32
2019-05-10T03:14:55.979Z,20.31
2019-05-10T03:15:55.973Z,20.39
2019-05-10T03:17:55.955Z,20.28
2019-05-10T03:18:55.952Z,20.33
2019-05-10T03:19:55.948Z,20.26
2019-05-10T03:20:55.939Z,20.31
2019-05-10T03:21:55.934Z,20.29
2019-05-10T03:22:55.924Z,20.29
2019-05-10T03:23:55.918Z,20.33
2019-05-10T03:24:55.912Z,20.39
2019-05-10T03:25:55.905Z,20.29
2019-05-10T03:26:55.897Z,20.24
2019-05-10T03:27:55.898Z,20.28
2019-05-10T03:28:55.908Z,20.29
2019-05-10T03:29:55.901Z,20.26
2019-05-10T03:31:23.624Z,20.35
2019-05-10T03:32:23.628Z,20.26
2019-05-10T03:33:23.771Z,20.28
2019-05-10T03:34:23.619Z,20.32
2019-05-10T03:36:23.604Z,20.28
2019-05-10T03:37:23.607Z,20.29
2019-05-10T03:38:23.613Z,20.28
2019-05-10T03:39:23.588Z,20.23
2019-05-10T03:40:23.578Z,20.24
2019-05-10T03:41:23.576Z,20.32
2019-05-10T03:42:23.563Z,20.26
2019-05-10T03:43:23.555Z,20.29
2019-05-10T03:44:23.547Z,20.29
2019-05-10T03:45:23.540Z,20.28
2019-05-10T03:46:23.534Z,20.23
2019-05-10T03:47:23.526Z,20.28
2019-05-10T03:49:23.514Z,20.29
2019-05-10T03:50:23.505Z,20.21
2019-05-10T03:51:23.528Z,20.28
2019-05-10T03:52:23.526Z,20.26
2019-05-10T03:53:23.521Z,20.21
2019-05-10T03:54:23.517Z,20.26
2019-05-10T03:55:23.512Z,20.28
2019-05-10T03:56:23.506Z,20.31
2019-05-10T03:57:23.497Z,20.24
2019-05-10T03:58:23.493Z,20.23
2019-05-10T03:59:23.488Z,20.28
2019-05-10T04:00:23.702Z,20.28
2019-05-10T04:01:23.497Z,20.24
2019-05-10T04:02:23.488Z,20.28
2019-05-10T04:03:23.498Z,20.28
2019-05-10T04:04:23.477Z,20.32
2019-05-10T04:05:23.472Z,20.23
2019-05-10T04:06:23.481Z,20.31
2019-05-10T04:08:23.450Z,20.29
2019-05-10T04:09:23.452Z,20.21
2019-05-10T04:10:23.443Z,20.23
2019-05-10T04:11:23.521Z,20.33
2019-05-10T04:12:23.449Z,20.21
2019-05-10T04:13:23.419Z,20.28
2019-05-10T04:14:23.477Z,20.29
2019-05-10T04:15:23.407Z,20.31
2019-05-10T04:16:23.396Z,20.28
2019-05-10T04:17:23.396Z,20.28
2019-05-10T04:18:23.388Z,20.24
2019-05-10T04:19:23.380Z,20.26
2019-05-10T04:20:23.373Z,20.24
2019-05-10T04:21:23.366Z,20.26
2019-05-10T04:22:23.361Z,20.32
2019-05-10T04:23:23.355Z,20.33
2019-05-10T04:24:23.355Z,20.36
2019-05-10T04:25:23.346Z,20.33
2019-05-10T04:26:23.336Z,20.35
2019-05-10T04:27:31.971Z,20.38
2019-05-10T04:28:51.050Z,20.39
2019-05-10T04:29:51.051Z,20.41
2019-05-10T04:30:51.039Z,20.47
2019-05-10T04:31:51.031Z,20.51
2019-05-10T04:32:51.027Z,20.54
2019-05-10T04:33:51.020Z,20.58
2019-05-10T04:34:51.014Z,20.53
2019-05-10T04:35:51.007Z,20.61
2019-05-10T04:36:51.001Z,20.60
2019-05-10T04:37:50.996Z,20.56
2019-05-10T04:38:50.987Z,20.61
2019-05-10T04:39:50.980Z,20.71
2019-05-10T04:40:50.974Z,20.60
2019-05-10T04:41:50.966Z,20.71
2019-05-10T04:42:50.960Z,20.72
2019-05-10T04:43:50.952Z,20.73
2019-05-10T04:45:18.693Z,20.78
2019-05-10T04:46:18.692Z,20.81
2019-05-10T04:47:18.686Z,20.86
2019-05-10T04:48:18.675Z,20.83
2019-05-10T04:49:18.669Z,20.83
2019-05-10T04:50:18.669Z,20.91
2019-05-10T04:51:18.659Z,20.86
2019-05-10T04:52:18.702Z,20.97
2019-05-10T04:53:18.648Z,20.88
2019-05-10T04:54:18.647Z,21.02
2019-05-10T04:55:18.633Z,20.98
2019-05-10T04:56:18.626Z,21.02
2019-05-10T04:57:18.618Z,21.03
2019-05-10T04:58:18.613Z,21.12
2019-05-10T04:59:18.603Z,21.05
2019-05-10T05:00:18.609Z,21.09
2019-05-10T05:01:18.596Z,21.12
2019-05-10T05:02:22.017Z,21.21
2019-05-10T05:03:18.593Z,21.17
2019-05-10T05:04:18.581Z,21.17
2019-05-10T05:05:18.643Z,21.24
2019-05-10T05:06:18.575Z,21.17
2019-05-10T05:07:18.561Z,21.09
2019-05-10T05:08:18.555Z,21.27
2019-05-10T05:09:18.550Z,21.28
2019-05-10T05:10:18.548Z,21.21
2019-05-10T05:11:18.558Z,21.17
2019-05-10T05:12:18.550Z,21.12
2019-05-10T05:13:18.556Z,21.19
2019-05-10T05:14:18.538Z,21.25
2019-05-10T05:15:18.532Z,21.17
2019-05-10T05:16:46.322Z,21.22
2019-05-10T05:17:46.244Z,21.28
2019-05-10T05:18:46.255Z,21.15
2019-05-10T05:19:46.232Z,21.19
2019-05-10T05:20:46.226Z,21.25
2019-05-10T05:21:46.219Z,21.29
2019-05-10T05:22:46.214Z,21.35
2019-05-10T05:23:46.209Z,21.24
2019-05-10T05:24:46.199Z,21.28
2019-05-10T05:25:46.193Z,21.29
2019-05-10T05:26:46.188Z,21.35
2019-05-10T05:27:46.181Z,21.31
2019-05-10T05:28:46.172Z,21.44
2019-05-10T05:29:46.168Z,21.38
2019-05-10T05:30:46.160Z,21.38
2019-05-10T05:31:46.162Z,21.46
2019-05-10T05:32:46.147Z,21.47
2019-05-10T05:33:46.140Z,21.46
2019-05-10T05:34:46.134Z,21.40
2019-05-10T05:35:46.124Z,21.49
2019-05-10T05:36:46.118Z,21.47
2019-05-10T05:37:46.112Z,21.54
2019-05-10T05:38:47.486Z,21.54
2019-05-10T05:39:46.099Z,21.53
2019-05-10T05:40:46.101Z,21.53
2019-05-10T05:41:51.595Z,21.52
2019-05-10T05:42:48.080Z,21.59
2019-05-10T05:43:48.067Z,21.53
2019-05-10T05:44:46.067Z,21.62
2019-05-10T05:45:46.058Z,21.65
2019-05-10T05:46:46.054Z,21.64
2019-05-10T05:47:46.044Z,21.71
2019-05-10T05:48:46.242Z,21.65
2019-05-10T05:49:46.034Z,21.62
2019-05-10T05:50:46.021Z,21.68
2019-05-10T05:52:19.274Z,21.75
2019-05-10T05:52:46.021Z,21.74
2019-05-10T05:53:46.049Z,21.74
2019-05-10T05:54:45.993Z,21.77
2019-05-10T05:56:50.821Z,21.77
2019-05-10T05:58:25.613Z,21.80
2019-05-10T05:59:41.434Z,21.83
2019-05-10T06:00:44.654Z,21.87
2019-05-10T06:01:41.428Z,21.87
2019-05-10T06:02:45.053Z,21.82
2019-05-10T06:03:41.412Z,21.87
2019-05-10T06:04:46.263Z,21.87
2019-05-10T06:06:20.920Z,21.86
2019-05-10T06:07:11.120Z,21.83
2019-05-10T06:08:36.892Z,21.95
2019-05-10T06:09:37.835Z,21.89
2019-05-10T06:10:36.881Z,21.93
2019-05-10T06:11:37.843Z,21.86
2019-05-10T06:12:36.873Z,21.87
2019-05-10T06:13:36.916Z,22.01
2019-05-10T06:14:36.857Z,21.95
2019-05-10T06:16:06.407Z,21.91
2019-05-10T06:17:32.311Z,21.93
2019-05-10T06:18:32.300Z,21.98
2019-05-10T06:19:32.291Z,22.05
2019-05-10T06:20:32.287Z,21.91
2019-05-10T06:21:32.281Z,21.99
2019-05-10T06:22:32.282Z,22.04
2019-05-10T06:23:35.127Z,21.98
2019-05-10T06:24:34.371Z,21.95
2019-05-10T06:25:39.204Z,22.01
2019-05-10T06:26:34.250Z,21.99
2019-05-10T06:27:35.425Z,22.06
2019-05-10T06:29:04.194Z,22.14
2019-05-10T06:30:00.008Z,22.05
2019-05-10T06:30:59.953Z,22.04
2019-05-10T06:31:59.954Z,22.08
2019-05-10T06:33:11.294Z,22.06
2019-05-10T06:34:31.862Z,22.06
2019-05-10T06:35:29.661Z,22.09
2019-05-10T06:36:27.705Z,22.13
2019-05-10T06:37:31.218Z,22.13
2019-05-10T06:38:27.642Z,22.06
2019-05-10T06:39:27.637Z,22.11
2019-05-10T06:40:35.611Z,22.21
2019-05-10T06:41:56.404Z,22.16
2019-05-10T06:42:55.353Z,22.17
2019-05-10T06:43:55.335Z,22.21
2019-05-10T06:45:23.057Z,22.21
2019-05-10T06:46:23.799Z,22.17
2019-05-10T06:47:53.433Z,22.24
2019-05-10T06:48:50.973Z,22.21
2019-05-10T06:49:52.305Z,22.17
2019-05-10T06:50:50.764Z,22.17
2019-05-10T06:51:51.007Z,22.21
2019-05-10T06:52:52.155Z,22.21
2019-05-10T06:53:53.623Z,22.24
2019-05-10T06:54:50.733Z,22.26
2019-05-10T06:55:50.734Z,22.26
2019-05-10T06:56:50.744Z,22.29
2019-05-10T06:57:59.577Z,22.24
2019-05-10T06:59:19.334Z,22.24
2019-05-10T07:00:18.458Z,22.27
2019-05-10T07:01:18.450Z,22.19
2019-05-10T07:02:20.072Z,22.21
2019-05-10T07:03:46.162Z,22.23
2019-05-10T07:04:46.157Z,22.30
2019-05-10T07:05:46.153Z,22.34
2019-05-10T07:06:46.148Z,22.36
2019-05-10T07:07:46.139Z,22.32
2019-05-10T07:08:46.227Z,22.34
2019-05-10T07:10:03.781Z,22.24
2019-05-10T07:10:48.118Z,22.23
2019-05-10T07:11:46.113Z,22.34
2019-05-10T07:12:46.159Z,22.34
2019-05-10T07:13:48.733Z,22.30
2019-05-10T07:14:48.105Z,22.36
2019-05-10T07:15:46.096Z,22.27
2019-05-10T07:16:46.092Z,22.29
2019-05-10T07:17:47.381Z,22.24
2019-05-10T07:18:46.108Z,22.32
2019-05-10T07:19:53.838Z,22.27
2019-05-10T07:21:13.817Z,22.21
2019-05-10T07:22:13.813Z,22.27
2019-05-10T07:23:13.807Z,22.21
2019-05-10T07:24:18.356Z,22.27
2019-05-10T07:25:43.703Z,22.32
2019-05-10T07:27:09.243Z,22.23
2019-05-10T07:28:15.468Z,22.27
2019-05-10T07:29:43.674Z,22.27
2019-05-10T07:30:41.554Z,22.35
2019-05-10T07:31:36.955Z,22.32
2019-05-10T07:32:36.984Z,22.36
2019-05-10T07:33:39.212Z,22.36
2019-05-10T07:34:36.933Z,22.41
2019-05-10T07:35:38.643Z,22.39
2019-05-10T07:36:36.915Z,22.41
2019-05-10T07:37:36.908Z,22.34
2019-05-10T07:38:36.901Z,22.32
2019-05-10T07:39:36.895Z,22.34
2019-05-10T07:40:37.090Z,22.34
2019-05-10T07:41:37.106Z,22.29
2019-05-10T07:42:39.843Z,22.36
2019-05-10T07:44:07.944Z,22.36
2019-05-10T07:45:04.594Z,22.34
2019-05-10T07:46:31.761Z,22.35
2019-05-10T07:47:32.645Z,22.41
2019-05-10T07:48:31.752Z,22.36
2019-05-10T07:49:32.531Z,22.35
2019-05-10T07:50:31.741Z,22.32
2019-05-10T07:51:31.789Z,22.36
2019-05-10T07:52:36.510Z,22.34
2019-05-10T07:54:04.501Z,22.39
2019-05-10T07:55:29.501Z,22.36
2019-05-10T07:56:26.145Z,22.36
2019-05-10T07:57:27.024Z,22.38
2019-05-10T07:58:53.361Z,22.45
2019-05-10T07:59:57.685Z,22.39
2019-05-10T08:01:29.089Z,22.34
2019-05-10T08:02:22.572Z,22.38
2019-05-10T08:03:23.739Z,22.34
2019-05-10T08:04:28.856Z,22.36
2019-05-10T08:05:55.143Z,22.36
2019-05-10T08:07:15.077Z,22.41
2019-05-10T08:08:15.021Z,22.35
2019-05-10T08:09:15.018Z,22.44
2019-05-10T08:10:15.009Z,22.42
2019-05-10T08:11:15.005Z,22.38
2019-05-10T08:12:14.997Z,22.46
2019-05-10T08:13:15.434Z,22.41
2019-05-10T08:14:14.982Z,22.38
2019-05-10T08:15:14.976Z,22.42
2019-05-10T08:16:21.905Z,22.41
2019-05-10T08:17:45.628Z,22.50
2019-05-10T08:18:42.632Z,22.41
2019-05-10T08:19:42.180Z,22.45
2019-05-10T08:20:50.445Z,22.46
2019-05-10T08:22:09.507Z,22.45
2019-05-10T08:23:09.363Z,22.34
2019-05-10T08:24:13.703Z,22.34
2019-05-10T08:25:43.922Z,22.34
2019-05-10T08:27:11.287Z,22.32
2019-05-10T08:28:05.790Z,22.34
2019-05-10T08:29:07.674Z,22.36
2019-05-10T08:30:33.168Z,22.35
2019-05-10T08:31:39.278Z,22.39
2019-05-10T08:33:00.235Z,22.39
2019-05-10T08:34:28.951Z,22.39
2019-05-10T08:36:00.717Z,22.26
2019-05-10T08:37:30.361Z,22.41
2019-05-10T08:38:22.049Z,22.35
2019-05-10T08:39:22.199Z,22.42
2019-05-10T08:40:24.534Z,22.42
2019-05-10T08:41:22.374Z,22.44
2019-05-10T08:42:38.098Z,22.32
2019-05-10T08:43:47.051Z,22.42
2019-05-10T08:44:53.737Z,22.45
2019-05-10T08:46:24.287Z,22.46
2019-05-10T08:47:46.544Z,22.38
2019-05-10T08:48:50.722Z,22.41
2019-05-10T08:50:06.491Z,22.48
2019-05-10T08:51:13.748Z,22.38
2019-05-10T08:52:13.743Z,22.38
2019-05-10T08:53:16.422Z,22.44
2019-05-10T08:55:13.726Z,22.46
2019-05-10T08:56:20.895Z,22.38
2019-05-10T08:57:44.417Z,22.39
2019-05-10T08:59:16.302Z,22.53
2019-05-10T09:00:52.969Z,22.51
2019-05-10T09:02:07.828Z,22.51
2019-05-10T09:03:09.723Z,22.48
2019-05-10T09:04:10.870Z,22.46
2019-05-10T09:05:07.814Z,22.48
2019-05-10T09:06:11.880Z,22.53
2019-05-10T09:07:38.980Z,22.51
2019-05-10T09:08:35.060Z,22.51
2019-05-10T09:09:45.599Z,22.51
2019-05-10T09:11:06.612Z,22.48
2019-05-10T09:12:04.085Z,22.54
2019-05-10T09:13:37.275Z,22.44
2019-05-10T09:15:05.501Z,22.51
2019-05-10T09:15:58.703Z,22.51
2019-05-10T09:17:01.641Z,22.62
2019-05-10T09:18:28.968Z,22.51
2019-05-10T09:19:39.615Z,22.53
2019-05-10T09:21:56.435Z,22.53
2019-05-10T09:22:56.170Z,22.51
2019-05-10T09:24:01.480Z,22.44
2019-05-10T09:24:56.160Z,22.39
2019-05-10T09:25:56.152Z,22.42
2019-05-10T09:26:57.068Z,22.45
2019-05-10T09:27:56.140Z,22.34
2019-05-10T09:28:57.715Z,22.42
2019-05-10T09:29:56.128Z,22.32
2019-05-10T09:31:01.016Z,22.35
2019-05-10T09:33:23.333Z,22.38
2019-05-10T09:34:26.070Z,22.32
2019-05-10T09:35:23.321Z,22.32
2019-05-10T09:36:31.235Z,22.36
2019-05-10T09:37:25.324Z,22.34
2019-05-10T09:38:23.303Z,22.30
2019-05-10T09:39:25.269Z,22.29
2019-05-10T09:40:23.289Z,22.38
2019-05-10T09:41:27.587Z,22.27
2019-05-10T09:42:31.881Z,22.29
2019-05-10T09:43:51.613Z,22.29
2019-05-10T09:44:52.626Z,22.29
2019-05-10T09:45:52.848Z,22.29
2019-05-10T09:46:52.478Z,22.35
2019-05-10T09:48:17.720Z,22.32
2019-05-10T09:49:18.659Z,22.36
2019-05-10T09:50:17.723Z,22.23
2019-05-10T09:51:19.111Z,22.26
2019-05-10T09:52:44.936Z,22.27
2019-05-10T09:53:44.934Z,22.27
2019-05-10T09:54:49.215Z,22.29
2019-05-10T09:55:55.241Z,22.21
2019-05-10T09:56:52.052Z,22.23
2019-05-10T09:57:44.908Z,22.21
2019-05-10T09:58:44.902Z,22.24
2019-05-10T09:59:46.950Z,22.26
2019-05-10T10:00:44.891Z,22.24
2019-05-10T10:01:44.880Z,22.21
2019-05-10T10:02:49.475Z,22.29
2019-05-10T10:04:12.110Z,22.24
2019-05-10T10:05:12.041Z,22.24
2019-05-10T10:06:12.035Z,22.29
2019-05-10T10:07:12.028Z,22.21
2019-05-10T10:08:12.031Z,22.24
2019-05-10T10:09:12.051Z,22.17
2019-05-10T10:10:12.747Z,22.20
2019-05-10T10:11:15.751Z,22.23
2019-05-10T10:12:39.297Z,22.24
2019-05-10T10:13:43.604Z,22.20
2019-05-10T10:14:43.118Z,22.20
2019-05-10T10:15:39.280Z,22.16
2019-05-10T10:16:39.275Z,22.20
2019-05-10T10:17:42.350Z,22.20
2019-05-10T10:18:39.260Z,22.21
2019-05-10T10:19:40.581Z,22.20
2019-05-10T10:20:43.434Z,22.21
2019-05-10T10:21:39.240Z,22.26
2019-05-10T10:22:43.540Z,22.26
2019-05-10T10:24:15.485Z,22.30
2019-05-10T10:25:35.260Z,22.27
2019-05-10T10:27:00.848Z,22.26
2019-05-10T10:29:00.886Z,22.26
2019-05-10T10:31:05.242Z,22.21
2019-05-10T10:32:00.818Z,22.32
2019-05-10T10:33:05.746Z,22.19
2019-05-10T10:34:32.655Z,22.23
2019-05-10T10:35:30.024Z,22.24
2019-05-10T10:36:27.969Z,22.17
2019-05-10T10:37:31.194Z,22.19
2019-05-10T10:38:31.051Z,22.24
2019-05-10T10:39:27.951Z,22.23
2019-05-10T10:40:28.143Z,22.29
2019-05-10T10:41:31.907Z,22.27
2019-05-10T10:42:27.932Z,22.21
2019-05-10T10:44:27.971Z,22.23
2019-05-10T10:45:57.230Z,22.26
2019-05-10T10:46:58.044Z,22.23
2019-05-10T10:47:57.163Z,22.27
2019-05-10T10:48:55.126Z,22.21
2019-05-10T10:49:57.338Z,22.08
2019-05-10T10:50:57.926Z,22.23
2019-05-10T10:51:57.298Z,22.23
2019-05-10T10:52:57.363Z,22.20
2019-05-10T10:53:58.029Z,22.19
2019-05-10T10:54:55.087Z,22.17
2019-05-10T10:56:00.903Z,22.14
2019-05-10T10:57:22.297Z,22.16
2019-05-10T10:58:22.294Z,22.13
2019-05-10T10:59:22.285Z,22.19
2019-05-10T11:00:23.680Z,22.14
2019-05-10T11:01:25.586Z,22.17
2019-05-10T11:02:32.677Z,22.19
2019-05-10T11:03:30.394Z,22.17
2019-05-10T11:04:49.479Z,22.19
2019-05-10T11:05:49.474Z,22.13
2019-05-10T11:06:49.467Z,22.14
2019-05-10T11:07:51.267Z,22.14
2019-05-10T11:08:51.713Z,22.13
2019-05-10T11:09:53.697Z,22.19
2019-05-10T11:11:16.740Z,22.17
2019-05-10T11:12:21.060Z,22.16
2019-05-10T11:13:23.968Z,22.11
2019-05-10T11:14:45.510Z,22.14
2019-05-10T11:15:43.949Z,22.20
2019-05-10T11:16:46.764Z,22.08
2019-05-10T11:18:11.161Z,22.05
2019-05-10T11:19:15.435Z,22.09
2019-05-10T11:20:11.637Z,22.09
2019-05-10T11:21:11.336Z,22.06
2019-05-10T11:22:11.153Z,22.11
2019-05-10T11:23:11.148Z,22.08
2019-05-10T11:24:17.910Z,22.14
2019-05-10T11:25:12.838Z,22.13
2019-05-10T11:26:40.538Z,22.05
2019-05-10T11:27:38.355Z,22.08
2019-05-10T11:28:40.048Z,22.08
2019-05-10T11:29:38.346Z,22.09
2019-05-10T11:30:38.344Z,22.09
2019-05-10T11:31:38.348Z,22.08
2019-05-10T11:32:38.323Z,22.11
2019-05-10T11:34:06.232Z,22.05
2019-05-10T11:35:05.712Z,22.08
2019-05-10T11:36:08.613Z,22.14
2019-05-10T11:37:05.526Z,22.06
2019-05-10T11:38:06.621Z,21.95
2019-05-10T11:39:06.097Z,22.08
2019-05-10T11:40:05.512Z,22.08
2019-05-10T11:41:07.063Z,22.02
2019-05-10T11:42:37.577Z,22.13
2019-05-10T11:45:00.797Z,22.04
2019-05-10T11:45:59.981Z,21.97
2019-05-10T11:47:01.488Z,22.05
2019-05-10T11:48:02.149Z,21.98
2019-05-10T11:49:01.801Z,22.04
2019-05-10T11:50:06.078Z,21.97
2019-05-10T11:51:27.364Z,21.98
2019-05-10T11:52:29.102Z,21.97
2019-05-10T11:55:54.529Z,22.01
2019-05-10T11:56:58.456Z,21.97
2019-05-10T11:59:27.300Z,21.93
2019-05-10T12:00:55.838Z,21.98
2019-05-10T12:02:37.083Z,22.04
2019-05-10T12:03:22.399Z,22.02
2019-05-10T12:04:24.078Z,21.91
2019-05-10T12:05:43.388Z,21.90
2019-05-10T12:07:16.629Z,21.99
2019-05-10T12:07:46.118Z,21.86
2019-05-10T12:08:43.370Z,21.97
2019-05-10T12:09:43.363Z,21.99
2019-05-10T12:10:52.623Z,21.97
2019-05-10T12:12:12.166Z,22.01
2019-05-10T12:13:18.594Z,21.93
2019-05-10T12:14:37.794Z,22.02
2019-05-10T12:15:37.788Z,21.91
2019-05-10T12:17:37.823Z,21.91
2019-05-10T12:18:46.390Z,21.95
2019-05-10T12:20:04.985Z,21.98
2019-05-10T12:21:09.537Z,21.99
2019-05-10T12:22:37.893Z,21.91
2019-05-10T12:24:10.596Z,21.98
2019-05-10T12:25:42.706Z,22.02
2019-05-10T12:26:20.249Z,21.97
2019-05-10T12:27:53.811Z,21.99
2019-05-10T12:28:53.802Z,21.98
2019-05-10T12:29:59.583Z,21.97
2019-05-10T12:31:23.205Z,21.91
2019-05-10T12:32:21.393Z,21.93
2019-05-10T12:33:25.200Z,21.90
2019-05-10T12:34:51.996Z,21.99
2019-05-10T12:36:25.457Z,22.05
2019-05-10T12:37:46.178Z,21.89
2019-05-10T12:39:11.573Z,21.97
2019-05-10T12:40:14.899Z,21.93
2019-05-10T12:42:37.116Z,22.01
2019-05-10T12:43:37.114Z,21.93
2019-05-10T12:44:38.951Z,21.97
2019-05-10T12:46:41.377Z,21.95
2019-05-10T12:47:37.111Z,22.05
2019-05-10T12:48:37.114Z,21.86
2019-05-10T12:49:37.101Z,22.02
2019-05-10T12:50:37.105Z,21.99
2019-05-10T12:51:37.097Z,21.98
2019-05-10T12:52:37.098Z,22.01
2019-05-10T12:53:44.461Z,22.02
2019-05-10T12:55:04.255Z,21.87
2019-05-10T12:56:04.275Z,22.05
2019-05-10T12:57:04.246Z,21.91
2019-05-10T12:58:04.238Z,21.99
2019-05-10T13:00:06.750Z,21.93
2019-05-10T13:01:33.109Z,22.01
2019-05-10T13:02:31.438Z,21.95
2019-05-10T13:03:33.658Z,22.01
2019-05-10T13:04:40.216Z,21.93
2019-05-10T13:05:58.670Z,22.01
2019-05-10T13:06:58.663Z,21.87
2019-05-10T13:07:58.655Z,21.95
2019-05-10T13:08:58.699Z,21.91
2019-05-10T13:10:03.650Z,21.89
2019-05-10T13:11:27.075Z,21.95
2019-05-10T13:12:25.858Z,21.93
2019-05-10T13:13:29.792Z,21.91
2019-05-10T13:14:28.938Z,21.90
2019-05-10T13:15:31.009Z,21.89
2019-05-10T13:16:25.829Z,21.98
2019-05-10T13:17:25.821Z,21.90
2019-05-10T13:18:49.163Z,21.97
2019-05-10T13:19:58.504Z,21.89
2019-05-10T13:21:22.902Z,21.93
2019-05-10T13:22:20.268Z,21.95
2019-05-10T13:23:20.252Z,21.90
2019-05-10T13:24:20.242Z,21.90
2019-05-10T13:25:20.327Z,21.87
2019-05-10T13:26:20.237Z,22.02
2019-05-10T13:27:20.227Z,21.91
2019-05-10T13:28:20.215Z,21.84
2019-05-10T13:29:20.208Z,21.97
2019-05-10T13:30:27.444Z,21.98
2019-05-10T13:31:47.436Z,21.89
2019-05-10T13:32:47.432Z,21.99
2019-05-10T13:34:47.418Z,21.91
2019-05-10T13:35:50.731Z,21.97
2019-05-10T13:36:49.403Z,21.95
2019-05-10T13:37:47.422Z,22.01
2019-05-10T13:38:49.184Z,21.89
2019-05-10T13:39:47.408Z,21.97
2019-05-10T13:40:47.829Z,21.95
2019-05-10T13:41:47.396Z,21.97
2019-05-10T13:42:47.390Z,21.97
2019-05-10T13:43:47.395Z,21.87
2019-05-10T13:44:47.386Z,21.95
2019-05-10T13:45:47.378Z,21.99
2019-05-10T13:46:47.381Z,21.89
2019-05-10T13:47:47.365Z,21.95
2019-05-10T13:48:47.355Z,21.83
2019-05-10T13:50:14.575Z,21.99
2019-05-10T13:51:14.585Z,21.93
2019-05-10T13:53:20.910Z,21.97
2019-05-10T13:54:41.778Z,21.93
2019-05-10T13:55:41.774Z,21.91
2019-05-10T13:56:45.356Z,21.87
2019-05-10T13:58:09.037Z,21.91
2019-05-10T13:59:15.823Z,21.89
2019-05-10T14:00:11.027Z,21.91
2019-05-10T14:01:13.053Z,21.89
2019-05-10T14:02:41.313Z,21.91
2019-05-10T14:04:14.515Z,21.90
2019-05-10T14:04:41.302Z,21.90
2019-05-10T14:05:41.298Z,21.87
2019-05-10T14:06:41.287Z,21.89
2019-05-10T14:07:50.470Z,21.89
2019-05-10T14:09:08.629Z,21.93
2019-05-10T14:10:08.639Z,21.87
2019-05-10T14:11:08.616Z,21.95